Time;durP1;ratioP1;P1;durP2;ratioP2;P2;SDS_P1;SDS_P2;PMS_P1;PMS_P2;Temp;Humidity;BMP_temperature;BMP_pressure;BME280_temperature;BME280_humidity;BME280_pressure;Samples;Min_cycle;Max_cycle;Signal;HPM_P1;HPM_P2
2020/12/03 00:00:25;;;;;;;21.85;15.93;;;5.40;99.90;;;;;;5033561;28;20017;-85
2020/12/03 00:02:51;;;;;;;23.00;15.55;;;5.40;99.90;;;;;;5035032;28;20044;-85
2020/12/03 00:05:16;;;;;;;23.88;16.58;;;5.40;99.90;;;;;;5037289;28;20052;-85
2020/12/03 00:07:42;;;;;;;25.45;17.52;;;5.30;99.90;;;;;;5023906;28;20025;-84
2020/12/03 00:10:08;;;;;;;26.15;16.58;;;5.20;99.90;;;;;;5046976;28;20025;-84
2020/12/03 00:12:33;;;;;;;24.33;17.15;;;5.20;99.90;;;;;;5041315;28;20098;-85
2020/12/03 00:14:59;;;;;;;23.08;16.92;;;5.10;99.90;;;;;;5026740;28;20421;-85
2020/12/03 00:17:24;;;;;;;23.55;17.52;;;5.00;99.90;;;;;;5020830;28;20041;-85
2020/12/03 00:19:50;;;;;;;30.70;24.70;;;5.00;99.90;;;;;;5013745;28;20026;-84
2020/12/03 00:22:15;;;;;;;23.38;17.13;;;5.20;99.90;;;;;;5027983;28;20540;-85
2020/12/03 00:24:41;;;;;;;22.55;16.73;;;5.20;99.90;;;;;;5049782;28;20028;-85
2020/12/03 00:27:11;;;;;;;22.85;15.93;;;5.10;99.90;;;;;;5036713;28;20169;-85
2020/12/03 00:29:37;;;;;;;24.73;18.30;;;5.00;99.90;;;;;;5026099;28;20108;-85
2020/12/03 00:32:04;;;;;;;23.02;16.38;;;5.10;99.90;;;;;;5024085;28;20563;-85
2020/12/03 00:34:30;;;;;;;25.15;18.02;;;5.10;99.90;;;;;;5029283;28;20018;-85
2020/12/03 00:36:56;;;;;;;23.40;16.83;;;5.30;99.90;;;;;;5032991;28;20029;-85
2020/12/03 00:39:24;;;;;;;22.73;16.73;;;5.20;99.90;;;;;;5032014;28;20103;-85
2020/12/03 00:41:52;;;;;;;24.80;16.45;;;5.20;99.90;;;;;;5013293;28;20042;-84
2020/12/03 00:44:19;;;;;;;21.80;15.63;;;5.10;99.90;;;;;;5030853;28;20423;-85
2020/12/03 00:46:45;;;;;;;23.17;16.02;;;5.20;99.90;;;;;;5043004;28;20067;-85
2020/12/03 00:49:12;;;;;;;23.15;16.77;;;5.10;99.90;;;;;;5047301;28;20025;-84
2020/12/03 00:51:37;;;;;;;23.52;16.60;;;5.30;99.90;;;;;;5021946;28;20045;-84
2020/12/03 00:54:03;;;;;;;27.35;17.63;;;5.40;99.90;;;;;;5042760;28;20051;-85
2020/12/03 00:56:29;;;;;;;27.05;17.38;;;5.40;99.90;;;;;;5038585;28;20040;-85
2020/12/03 00:58:55;;;;;;;25.55;16.98;;;5.40;99.90;;;;;;5049941;28;20025;-84
2020/12/03 01:01:21;;;;;;;27.30;17.08;;;5.50;99.90;;;;;;5041483;28;20017;-85
2020/12/03 01:03:48;;;;;;;22.85;16.60;;;5.60;99.90;;;;;;5043791;28;20037;-85
2020/12/03 01:06:14;;;;;;;20.65;14.70;;;5.50;99.90;;;;;;5026888;28;20057;-85
2020/12/03 01:08:40;;;;;;;22.67;16.02;;;5.50;99.90;;;;;;5052596;28;20056;-85
2020/12/03 01:11:05;;;;;;;22.25;15.95;;;5.50;99.90;;;;;;5031256;28;20464;-85
2020/12/03 01:13:31;;;;;;;21.35;14.77;;;5.40;99.90;;;;;;5040764;28;20034;-85
2020/12/03 01:15:58;;;;;;;22.05;16.50;;;5.40;99.90;;;;;;5030197;28;20030;-85
2020/12/03 01:18:24;;;;;;;26.77;17.25;;;5.30;99.90;;;;;;5030051;28;20563;-84
2020/12/03 01:20:49;;;;;;;21.17;15.82;;;5.40;99.90;;;;;;5033573;28;20021;-85
2020/12/03 01:23:15;;;;;;;22.02;15.63;;;5.50;99.90;;;;;;5035645;28;20393;-85
2020/12/03 01:25:41;;;;;;;21.63;16.05;;;5.40;99.90;;;;;;5036805;28;20475;-85
2020/12/03 01:28:06;;;;;;;22.67;16.10;;;5.40;99.90;;;;;;5056714;28;20032;-85
2020/12/03 01:30:32;;;;;;;23.27;16.55;;;5.60;99.90;;;;;;5049420;28;20493;-85
2020/12/03 01:32:58;;;;;;;20.90;15.68;;;5.60;99.90;;;;;;5034610;28;20120;-85
2020/12/03 01:35:23;;;;;;;23.02;17.15;;;5.60;99.90;;;;;;5033446;28;20423;-85
2020/12/03 01:37:50;;;;;;;20.67;15.60;;;5.60;99.90;;;;;;5058687;28;20032;-85
2020/12/03 01:40:20;;;;;;;22.65;15.98;;;5.50;99.90;;;;;;5051967;28;20017;-85
2020/12/03 01:42:45;;;;;;;22.58;16.00;;;5.50;99.90;;;;;;5036722;28;20021;-85
2020/12/03 01:46:05;;;;;;;22.98;17.30;;;5.50;99.90;;;;;;5038260;28;20032;-85
2020/12/03 01:48:53;;;;;;;21.85;16.80;;;5.40;99.90;;;;;;4981820;28;20027;-85
2020/12/03 01:51:33;;;;;;;26.52;17.17;;;5.40;99.90;;;;;;4974252;28;20039;-85
2020/12/03 01:54:03;;;;;;;23.25;16.35;;;5.40;99.90;;;;;;4995080;28;20061;-85
2020/12/03 01:56:44;;;;;;;24.00;16.98;;;5.50;99.90;;;;;;4975809;28;20030;-85
2020/12/03 01:59:12;;;;;;;22.65;16.33;;;5.40;99.90;;;;;;4976443;28;20018;-85
2020/12/03 02:01:38;;;;;;;23.73;16.77;;;5.40;99.90;;;;;;4997971;28;20061;-85
2020/12/03 02:04:04;;;;;;;20.88;16.33;;;5.40;99.90;;;;;;4998596;28;20034;-84
2020/12/03 02:06:35;;;;;;;22.63;16.95;;;5.40;99.90;;;;;;4994310;28;20026;-85
2020/12/03 02:09:03;;;;;;;25.08;17.08;;;5.40;99.90;;;;;;5001286;28;20049;-85
2020/12/03 02:11:29;;;;;;;24.08;16.35;;;5.40;99.90;;;;;;5000612;28;20236;-85
2020/12/03 02:14:03;;;;;;;23.67;16.33;;;5.30;99.90;;;;;;4998144;28;20525;-85
2020/12/03 02:16:37;;;;;;;22.55;15.68;;;5.30;99.90;;;;;;4982992;28;20049;-85
2020/12/03 02:19:13;;;;;;;22.90;16.00;;;5.30;99.90;;;;;;5013864;28;20478;-85
2020/12/03 02:21:40;;;;;;;23.27;15.77;;;5.30;99.90;;;;;;5020192;28;20025;-85
2020/12/03 02:24:06;;;;;;;23.67;15.70;;;5.40;99.90;;;;;;5040415;28;20025;-85
2020/12/03 02:26:32;;;;;;;25.13;16.73;;;5.40;99.90;;;;;;5055347;28;20031;-85
2020/12/03 02:28:57;;;;;;;23.85;16.80;;;5.40;99.90;;;;;;5055488;28;20037;-85
2020/12/03 02:31:23;;;;;;;25.90;17.05;;;5.40;99.90;;;;;;5037048;28;20639;-85
2020/12/03 02:33:48;;;;;;;25.60;17.05;;;5.40;99.90;;;;;;5049644;28;20033;-85
2020/12/03 02:36:14;;;;;;;24.95;16.40;;;5.40;99.90;;;;;;5017060;28;20025;-85
2020/12/03 02:38:40;;;;;;;25.30;17.30;;;5.40;99.90;;;;;;5020796;28;20397;-85
2020/12/03 02:41:09;;;;;;;24.60;15.93;;;5.40;99.90;;;;;;5034154;28;20049;-85
2020/12/03 02:43:34;;;;;;;26.40;16.35;;;5.30;99.90;;;;;;5035110;28;20504;-85
2020/12/03 02:46:00;;;;;;;24.63;16.50;;;5.40;99.90;;;;;;5030936;28;20029;-85
2020/12/03 02:48:26;;;;;;;25.30;17.25;;;5.40;99.90;;;;;;5026370;28;20030;-85
2020/12/03 02:50:52;;;;;;;27.55;17.20;;;5.30;99.90;;;;;;5015366;28;20026;-85
2020/12/03 02:53:18;;;;;;;25.20;16.77;;;5.30;99.90;;;;;;5031485;28;20029;-85
2020/12/03 02:55:43;;;;;;;25.48;16.15;;;5.20;99.90;;;;;;5035211;28;20082;-85
2020/12/03 02:58:09;;;;;;;26.40;17.08;;;5.30;99.90;;;;;;5043468;28;20056;-85
2020/12/03 03:00:35;;;;;;;24.98;16.70;;;5.30;99.90;;;;;;5031137;28;20055;-85
2020/12/03 03:03:00;;;;;;;26.15;17.27;;;5.30;99.90;;;;;;5036026;28;20029;-84
2020/12/03 03:05:26;;;;;;;27.17;17.77;;;5.30;99.90;;;;;;5048285;28;20587;-85
2020/12/03 03:07:51;;;;;;;25.23;16.50;;;5.30;99.90;;;;;;5037494;28;20026;-85
2020/12/03 03:10:21;;;;;;;25.13;16.35;;;5.30;99.90;;;;;;5032078;28;20083;-85
2020/12/03 03:12:48;;;;;;;27.45;17.55;;;5.30;99.90;;;;;;5024963;28;20049;-85
2020/12/03 03:15:16;;;;;;;26.67;17.85;;;5.10;99.90;;;;;;5045536;28;20033;-84
2020/12/03 03:17:42;;;;;;;25.20;16.95;;;5.10;99.90;;;;;;5043313;28;20028;-85
2020/12/03 03:20:07;;;;;;;24.65;17.45;;;5.10;99.90;;;;;;5019632;28;20105;-85
2020/12/03 03:22:33;;;;;;;25.05;16.95;;;5.20;99.90;;;;;;5046867;28;20393;-85
2020/12/03 03:24:59;;;;;;;26.40;17.88;;;5.30;99.90;;;;;;5025475;28;20025;-85
2020/12/03 03:27:24;;;;;;;24.60;16.75;;;5.20;99.90;;;;;;5034416;28;20117;-85
2020/12/03 03:29:50;;;;;;;25.08;17.50;;;5.20;99.90;;;;;;5038312;28;20027;-84
2020/12/03 03:32:17;;;;;;;27.10;17.85;;;5.30;99.90;;;;;;5041889;28;20025;-84
2020/12/03 03:34:43;;;;;;;26.48;17.48;;;5.40;99.90;;;;;;5045278;28;20057;-85
2020/12/03 03:37:09;;;;;;;26.08;16.98;;;5.30;99.90;;;;;;5035368;28;20033;-85
2020/12/03 03:39:34;;;;;;;28.05;18.40;;;5.30;99.90;;;;;;5033073;28;20165;-85
2020/12/03 03:42:00;;;;;;;27.73;17.95;;;5.40;99.90;;;;;;5033753;28;20127;-84
2020/12/03 03:44:26;;;;;;;25.40;17.38;;;5.40;99.90;;;;;;5019836;28;20230;-84
2020/12/03 03:46:52;;;;;;;25.13;16.73;;;5.40;99.90;;;;;;5014073;28;20029;-85
2020/12/03 03:49:18;;;;;;;27.65;18.13;;;5.40;99.90;;;;;;5013910;28;20076;-84
2020/12/03 03:51:44;;;;;;;27.55;17.33;;;5.40;99.90;;;;;;5013136;28;20021;-85
2020/12/03 03:54:09;;;;;;;26.20;18.00;;;5.40;99.90;;;;;;5014148;28;20038;-85
2020/12/03 03:56:35;;;;;;;27.63;17.60;;;5.40;99.90;;;;;;5013614;28;20034;-85
2020/12/03 03:59:01;;;;;;;27.05;17.35;;;5.50;99.90;;;;;;5029199;28;20056;-85
2020/12/03 04:01:27;;;;;;;25.45;17.55;;;5.40;99.90;;;;;;5033242;28;20040;-84
2020/12/03 04:03:52;;;;;;;28.15;17.85;;;5.40;99.90;;;;;;5033838;28;20036;-85
2020/12/03 04:06:18;;;;;;;27.30;18.35;;;5.40;99.90;;;;;;5033150;28;20025;-84
2020/12/03 04:08:44;;;;;;;25.17;17.05;;;5.40;99.90;;;;;;5037114;28;20435;-85
2020/12/03 04:11:09;;;;;;;23.25;16.42;;;5.30;99.90;;;;;;5030244;28;20037;-85
2020/12/03 04:13:35;;;;;;;26.13;17.48;;;5.30;99.90;;;;;;5037723;28;20033;-85
2020/12/03 04:16:01;;;;;;;24.25;17.27;;;5.40;99.90;;;;;;5032792;28;20099;-85
2020/12/03 04:18:27;;;;;;;26.27;17.85;;;5.40;99.90;;;;;;5034410;28;20065;-84
2020/12/03 04:21:04;;;;;;;25.23;17.35;;;5.40;99.90;;;;;;5021852;28;20473;-85
2020/12/03 04:23:30;;;;;;;26.77;17.48;;;5.60;99.90;;;;;;5032572;28;20022;-84
2020/12/03 04:25:55;;;;;;;25.70;17.38;;;5.50;99.90;;;;;;5049165;28;20043;-85
2020/12/03 04:28:21;;;;;;;25.75;17.92;;;5.50;99.90;;;;;;5032089;28;20033;-85
2020/12/03 04:30:47;;;;;;;27.30;17.67;;;5.50;99.90;;;;;;5023635;28;20024;-84
2020/12/03 04:33:13;;;;;;;24.05;15.82;;;5.50;99.90;;;;;;5038120;28;20028;-85
2020/12/03 04:35:39;;;;;;;28.90;17.80;;;5.60;99.90;;;;;;5033153;28;20465;-85
2020/12/03 04:38:06;;;;;;;25.58;17.35;;;5.50;99.90;;;;;;5032834;28;20014;-85
2020/12/03 04:40:36;;;;;;;27.92;17.90;;;5.60;99.90;;;;;;5031660;28;20496;-84
2020/12/03 04:43:28;;;;;;;25.27;16.92;;;5.50;99.90;;;;;;5034390;28;20032;-84
2020/12/03 04:46:20;;;;;;;28.05;19.05;;;5.50;99.90;;;;;;5051398;28;20044;-85
2020/12/03 04:49:07;;;;;;;25.55;17.08;;;5.50;99.90;;;;;;5041989;28;20018;-85
2020/12/03 04:51:44;;;;;;;25.80;17.63;;;5.50;99.90;;;;;;5033015;28;20020;-85
2020/12/03 04:54:37;;;;;;;28.33;19.02;;;5.50;99.90;;;;;;5034388;28;20018;-85
2020/12/03 04:57:24;;;;;;;24.83;17.55;;;5.50;99.90;;;;;;5032772;28;20486;-83
2020/12/03 04:59:59;;;;;;;25.88;17.98;;;5.40;99.90;;;;;;5050861;28;20028;-85
2020/12/03 05:03:02;;;;;;;25.65;18.42;;;5.40;99.90;;;;;;5052323;28;20029;-85
2020/12/03 05:05:47;;;;;;;28.33;18.25;;;5.40;99.90;;;;;;5031198;28;20021;-84
2020/12/03 05:08:33;;;;;;;27.02;18.38;;;5.40;99.90;;;;;;5025489;28;20056;-85
2020/12/03 05:11:03;;;;;;;26.17;17.75;;;5.40;99.90;;;;;;5046186;28;20013;-85
2020/12/03 05:13:37;;;;;;;24.88;17.60;;;5.40;99.90;;;;;;5032399;28;20054;-84
2020/12/03 05:16:17;;;;;;;26.13;17.67;;;5.50;99.90;;;;;;5039469;28;20021;-85
2020/12/03 05:18:57;;;;;;;27.42;17.95;;;5.40;99.90;;;;;;5052739;28;20021;-85
2020/12/03 05:21:28;;;;;;;26.00;17.92;;;5.40;99.90;;;;;;5022615;28;20142;-85
2020/12/03 05:23:54;;;;;;;27.98;18.30;;;5.30;99.90;;;;;;5020543;28;20022;-85
2020/12/03 05:26:32;;;;;;;29.13;18.67;;;5.40;99.90;;;;;;5011848;28;20554;-85
2020/12/03 05:29:08;;;;;;;135.82;69.38;;;5.30;99.90;;;;;;5015181;28;20040;-85
2020/12/03 05:31:43;;;;;;;129.40;68.53;;;5.20;99.90;;;;;;5031331;28;20034;-85
2020/12/03 05:34:23;;;;;;;79.78;46.67;;;5.30;99.90;;;;;;5020653;28;20026;-84
2020/12/03 05:36:54;;;;;;;116.50;63.42;;;5.30;99.90;;;;;;5050015;28;20080;-85
2020/12/03 05:39:29;;;;;;;88.85;50.72;;;5.40;99.90;;;;;;5012845;28;20022;-85
2020/12/03 05:42:01;;;;;;;66.85;39.22;;;5.50;99.90;;;;;;5021007;28;20029;-85
2020/12/03 05:44:31;;;;;;;43.97;27.00;;;5.50;99.90;;;;;;5033113;28;20029;-85
2020/12/03 05:46:57;;;;;;;30.70;20.20;;;5.40;99.90;;;;;;5044239;28;20063;-85
2020/12/03 05:49:25;;;;;;;28.73;18.02;;;5.50;99.90;;;;;;5023599;28;20048;-85
2020/12/03 05:52:10;;;;;;;26.38;17.38;;;5.50;99.90;;;;;;5032557;28;20033;-85
2020/12/03 05:54:36;;;;;;;27.70;18.55;;;5.40;99.90;;;;;;5050468;28;20492;-84
2020/12/03 05:57:02;;;;;;;27.08;18.15;;;5.30;99.90;;;;;;5049519;28;20079;-84
2020/12/03 05:59:27;;;;;;;28.40;18.85;;;5.30;99.90;;;;;;5048869;28;20155;-85
2020/12/03 06:02:27;;;;;;;28.00;19.73;;;5.30;99.90;;;;;;5041421;28;20037;-84
2020/12/03 06:05:12;;;;;;;32.13;19.27;;;5.40;99.90;;;;;;5011181;28;20018;-85
2020/12/03 06:08:32;;;;;;;28.80;18.90;;;5.50;99.90;;;;;;5025228;28;20067;-84
2020/12/03 06:11:23;;;;;;;31.85;19.85;;;5.50;99.90;;;;;;5006677;28;20095;-84
2020/12/03 06:14:10;;;;;;;26.15;17.92;;;5.50;99.90;;;;;;5024589;28;20104;-85
2020/12/03 06:16:41;;;;;;;28.95;19.27;;;5.50;99.90;;;;;;5047765;28;20026;-85
2020/12/03 06:19:40;;;;;;;26.17;18.33;;;5.40;99.90;;;;;;5055588;28;20036;-85
2020/12/03 06:22:06;;;;;;;24.80;17.65;;;5.50;99.90;;;;;;5036036;28;20033;-85
2020/12/03 06:25:02;;;;;;;27.67;18.55;;;5.40;99.90;;;;;;5024752;28;20440;-84
2020/12/03 06:27:56;;;;;;;28.25;18.80;;;5.40;99.90;;;;;;5034140;28;20520;-85
2020/12/03 06:30:27;;;;;;;29.35;19.08;;;5.40;99.90;;;;;;5024298;28;20029;-85
2020/12/03 06:33:14;;;;;;;27.63;18.75;;;5.40;99.90;;;;;;5020641;28;20034;-84
2020/12/03 06:35:56;;;;;;;29.85;19.45;;;5.40;99.90;;;;;;5053520;28;20017;-85
2020/12/03 06:38:33;;;;;;;32.25;20.73;;;5.50;99.90;;;;;;5023690;28;20497;-84
2020/12/03 06:41:30;;;;;;;31.13;19.00;;;5.50;99.90;;;;;;5013859;28;20371;-84
2020/12/03 06:44:15;;;;;;;32.38;20.20;;;5.50;99.90;;;;;;5022805;28;20053;-84
2020/12/03 06:46:49;;;;;;;31.45;19.83;;;5.60;99.90;;;;;;5040248;28;20040;-85
2020/12/03 06:49:43;;;;;;;29.23;19.20;;;5.50;99.90;;;;;;5024892;28;20433;-85
2020/12/03 06:52:23;;;;;;;27.60;19.27;;;5.50;99.90;;;;;;5033238;28;20057;-84
2020/12/03 06:55:17;;;;;;;27.83;17.85;;;5.40;99.90;;;;;;5047960;28;20025;-85
2020/12/03 06:58:07;;;;;;;28.33;18.80;;;5.40;99.90;;;;;;5018576;28;20044;-86
2020/12/03 07:00:41;;;;;;;30.42;19.38;;;5.40;99.90;;;;;;5029870;28;20024;-86
2020/12/03 07:03:46;;;;;;;31.20;20.95;;;5.50;99.90;;;;;;5016250;28;20046;-86
2020/12/03 07:06:45;;;;;;;28.17;18.65;;;5.50;99.90;;;;;;5010142;28;20088;-85
2020/12/03 07:09:47;;;;;;;26.85;18.50;;;5.50;99.90;;;;;;5001256;28;20030;-86
2020/12/03 07:12:35;;;;;;;27.92;18.35;;;5.40;99.90;;;;;;4993752;28;20050;-85
2020/12/03 07:15:32;;;;;;;26.90;17.85;;;5.40;99.90;;;;;;5024161;28;20476;-82
2020/12/03 07:18:34;;;;;;;26.30;18.23;;;5.40;99.90;;;;;;4999278;28;20042;-83
2020/12/03 07:21:42;;;;;;;29.35;18.20;;;5.50;99.90;;;;;;5021470;28;20111;-83
2020/12/03 07:24:15;;;;;;;29.63;18.90;;;5.50;99.90;;;;;;5005542;28;20545;-83
2020/12/03 07:26:58;;;;;;;27.33;18.60;;;5.60;99.90;;;;;;5001647;28;20035;-84
2020/12/03 07:29:35;;;;;;;26.70;16.88;;;5.50;99.90;;;;;;5013176;28;20037;-83
2020/12/03 07:32:03;;;;;;;27.85;17.88;;;5.60;99.90;;;;;;4995964;28;20029;-83
2020/12/03 07:34:36;;;;;;;27.52;18.67;;;5.50;99.90;;;;;;4977922;28;20058;-83
2020/12/03 07:37:30;;;;;;;27.20;18.05;;;5.60;99.90;;;;;;4983899;28;20041;-82
2020/12/03 07:39:56;;;;;;;25.70;18.20;;;5.60;99.90;;;;;;4992571;28;20018;-83
2020/12/03 07:42:23;;;;;;;27.13;18.23;;;5.60;99.90;;;;;;5026427;28;20787;-83
2020/12/03 07:44:53;;;;;;;27.55;18.05;;;5.70;99.90;;;;;;5044041;28;20083;-83
2020/12/03 07:47:36;;;;;;;27.90;18.02;;;5.70;99.90;;;;;;5047191;28;20053;-82
2020/12/03 07:50:02;;;;;;;25.42;17.73;;;5.80;99.90;;;;;;5044298;28;20028;-83
2020/12/03 07:52:31;;;;;;;27.00;17.50;;;5.80;99.90;;;;;;5030166;28;20366;-84
2020/12/03 07:55:21;;;;;;;24.77;16.95;;;5.80;99.90;;;;;;5052210;28;20032;-82
2020/12/03 07:57:54;;;;;;;26.65;17.58;;;5.80;99.90;;;;;;5053809;28;20032;-85
2020/12/03 08:00:29;;;;;;;27.35;18.17;;;5.80;99.90;;;;;;5048369;28;20147;-81
2020/12/03 08:02:57;;;;;;;25.67;17.40;;;6.00;99.90;;;;;;5023834;28;20505;-83
2020/12/03 08:06:05;;;;;;;25.88;18.20;;;6.00;99.90;;;;;;5020591;28;20022;-84
2020/12/03 08:08:36;;;;;;;27.00;17.55;;;6.00;99.90;;;;;;5040829;28;20040;-83
2020/12/03 08:11:03;;;;;;;25.05;17.13;;;6.10;99.90;;;;;;5053349;28;20028;-84
2020/12/03 08:13:40;;;;;;;24.10;16.23;;;6.20;99.90;;;;;;5024896;28;20416;-90
2020/12/03 08:16:40;;;;;;;23.15;16.40;;;6.30;99.90;;;;;;5040180;28;20028;-85
2020/12/03 08:19:23;;;;;;;25.52;16.23;;;6.30;99.90;;;;;;5033547;28;20051;-82
2020/12/03 08:21:49;;;;;;;22.88;15.45;;;6.30;99.90;;;;;;5052176;28;20503;-81
2020/12/03 08:24:26;;;;;;;22.77;16.15;;;6.30;99.90;;;;;;5037909;28;20028;-81
2020/12/03 08:27:00;;;;;;;22.83;16.10;;;6.40;99.90;;;;;;5033050;28;20048;-81
2020/12/03 08:29:39;;;;;;;20.38;15.75;;;6.50;99.90;;;;;;5032385;28;20057;-82
2020/12/03 08:32:04;;;;;;;24.25;16.27;;;6.60;99.90;;;;;;5033437;28;20060;-82
2020/12/03 08:34:40;;;;;;;22.48;16.20;;;6.70;99.90;;;;;;5049909;28;20056;-84
2020/12/03 08:37:15;;;;;;;21.95;16.45;;;6.80;99.90;;;;;;5037396;28;20083;-82
2020/12/03 08:39:56;;;;;;;22.90;15.77;;;6.90;99.90;;;;;;5033028;28;20041;-82
2020/12/03 08:42:22;;;;;;;23.17;15.70;;;7.00;99.90;;;;;;5045950;28;20033;-84
2020/12/03 08:44:51;;;;;;;20.13;14.95;;;7.10;99.90;;;;;;5023674;28;20545;-83
2020/12/03 08:47:42;;;;;;;25.77;16.25;;;7.20;99.90;;;;;;5036013;28;20055;-83
2020/12/03 08:50:17;;;;;;;27.33;16.38;;;7.40;99.90;;;;;;5023986;28;20433;-83
2020/12/03 08:52:43;;;;;;;23.85;15.35;;;7.80;99.90;;;;;;5045263;28;20076;-83
2020/12/03 08:55:10;;;;;;;23.85;14.95;;;8.20;99.90;;;;;;5023132;28;20030;-84
2020/12/03 08:57:37;;;;;;;22.10;14.80;;;9.00;99.90;;;;;;5019608;28;21241;-83
2020/12/03 09:00:05;;;;;;;20.73;13.73;;;11.10;99.90;;;;;;5039228;28;20025;-84
2020/12/03 09:02:32;;;;;;;20.75;14.35;;;14.80;99.90;;;;;;5052798;28;20017;-83
2020/12/03 09:04:59;;;;;;;18.02;13.10;;;14.10;99.90;;;;;;5052741;28;20032;-84
2020/12/03 09:07:34;;;;;;;17.67;13.60;;;13.60;99.90;;;;;;5046691;28;20492;-83
2020/12/03 09:10:02;;;;;;;18.02;13.40;;;14.20;99.90;;;;;;5051387;28;20082;-84
2020/12/03 09:12:33;;;;;;;28.55;18.58;;;17.70;99.90;;;;;;5049366;28;20049;-83
2020/12/03 09:15:05;;;;;;;19.02;14.43;;;21.20;99.90;;;;;;5032836;28;20032;-84
2020/12/03 09:17:35;;;;;;;18.45;13.07;;;22.80;99.90;;;;;;5032440;28;20025;-84
2020/12/03 09:20:11;;;;;;;17.83;12.23;;;22.50;99.90;;;;;;5031997;28;20022;-84
2020/12/03 09:22:39;;;;;;;14.73;12.43;;;23.50;99.90;;;;;;5030980;28;20028;-84
2020/12/03 09:25:09;;;;;;;15.30;12.88;;;24.50;99.90;;;;;;5026401;28;20117;-84
2020/12/03 09:27:48;;;;;;;17.77;13.18;;;24.80;99.90;;;;;;5012737;28;20032;-84
2020/12/03 09:30:23;;;;;;;16.52;14.13;;;24.90;99.90;;;;;;5011783;28;20026;-85
2020/12/03 09:32:53;;;;;;;16.90;14.82;;;25.10;99.90;;;;;;5012017;28;20072;-85
2020/12/03 09:35:20;;;;;;;16.25;13.55;;;25.10;99.90;;;;;;5044826;28;20089;-85
2020/12/03 09:37:46;;;;;;;16.08;13.60;;;25.20;99.90;;;;;;5032402;28;20059;-85
2020/12/03 09:40:13;;;;;;;14.98;13.38;;;25.10;99.90;;;;;;5012603;28;20029;-85
2020/12/03 09:42:48;;;;;;;15.15;12.50;;;25.30;99.90;;;;;;5016245;28;20017;-85
2020/12/03 09:45:21;;;;;;;11.02;9.93;;;25.60;99.90;;;;;;5016756;28;20053;-85
2020/12/03 09:47:46;;;;;;;14.27;11.75;;;26.00;99.90;;;;;;5016241;28;20061;-85
2020/12/03 09:50:14;;;;;;;32.63;21.35;;;25.70;99.90;;;;;;5015783;28;20029;-85
2020/12/03 09:52:42;;;;;;;15.15;11.82;;;26.10;99.90;;;;;;5015891;28;20444;-85
2020/12/03 09:55:13;;;;;;;13.63;11.93;;;25.90;99.90;;;;;;5015931;28;20087;-84
2020/12/03 09:57:39;;;;;;;15.25;13.52;;;25.90;99.90;;;;;;5014548;28;20029;-85
2020/12/03 10:00:07;;;;;;;16.90;14.02;;;25.90;99.90;;;;;;5015940;28;20435;-85
2020/12/03 10:02:55;;;;;;;14.38;12.90;;;26.40;99.90;;;;;;5014522;28;20371;-85
2020/12/03 10:05:39;;;;;;;14.82;13.25;;;26.80;99.90;;;;;;5014040;28;20030;-85
2020/12/03 10:08:31;;;;;;;17.85;13.27;;;27.30;99.90;;;;;;5015698;28;20482;-85
2020/12/03 10:11:30;;;;;;;13.32;11.90;;;27.40;99.90;;;;;;5014469;28;20034;-85
2020/12/03 10:14:03;;;;;;;13.88;12.48;;;27.30;99.90;;;;;;5028213;28;20123;-85
2020/12/03 10:16:33;;;;;;;12.70;11.50;;;25.70;99.90;;;;;;5034596;28;20104;-85
2020/12/03 10:19:05;;;;;;;11.13;10.02;;;23.20;99.90;;;;;;5034714;28;20088;-85
2020/12/03 10:21:36;;;;;;;10.90;9.82;;;24.20;99.90;;;;;;5035844;28;20056;-85
2020/12/03 10:24:25;;;;;;;11.02;10.00;;;23.10;99.90;;;;;;5035514;28;20034;-85
2020/12/03 10:27:25;;;;;;;10.13;9.13;;;22.20;99.90;;;;;;5034777;28;20116;-84
2020/12/03 10:30:19;;;;;;;10.27;9.13;;;22.90;99.90;;;;;;5019269;28;20046;-85
2020/12/03 10:32:51;;;;;;;10.18;8.65;;;24.90;99.90;;;;;;5049325;28;20623;-84
2020/12/03 10:35:17;;;;;;;11.73;8.45;;;25.50;99.90;;;;;;5022563;28;20025;-85
2020/12/03 10:37:56;;;;;;;9.68;8.60;;;24.80;99.90;;;;;;5024308;28;20025;-85
2020/12/03 10:40:22;;;;;;;10.35;8.55;;;24.30;99.90;;;;;;5015505;28;20113;-85
2020/12/03 10:42:57;;;;;;;11.00;8.75;;;23.20;99.90;;;;;;5014842;28;20046;-85
2020/12/03 10:45:28;;;;;;;13.48;9.73;;;23.50;99.90;;;;;;5014251;28;20030;-85
2020/12/03 10:48:04;;;;;;;10.98;9.75;;;24.20;99.90;;;;;;5018118;28;20052;-85
2020/12/03 10:50:49;;;;;;;10.35;9.32;;;22.80;99.90;;;;;;5034267;28;20037;-85
2020/12/03 10:53:19;;;;;;;10.02;9.02;;;22.70;99.90;;;;;;5030576;28;20036;-85
2020/12/03 10:55:55;;;;;;;10.68;9.57;;;21.20;99.90;;;;;;5034880;28;20465;-85
2020/12/03 10:58:26;;;;;;;9.30;8.20;;;21.40;99.90;;;;;;5034396;28;20025;-85
2020/12/03 11:00:52;;;;;;;9.73;8.80;;;22.90;99.90;;;;;;5035093;28;20033;-85
2020/12/03 11:03:23;;;;;;;10.13;9.13;;;24.30;99.90;;;;;;5034766;28;20420;-85
2020/12/03 11:05:49;;;;;;;10.88;9.55;;;24.10;99.90;;;;;;5034543;28;20076;-85
2020/12/03 11:08:16;;;;;;;11.00;9.85;;;24.50;99.90;;;;;;5033470;28;20029;-85
2020/12/03 11:10:44;;;;;;;10.90;9.80;;;23.80;99.90;;;;;;5015171;28;20026;-84
2020/12/03 11:13:11;;;;;;;12.15;10.52;;;24.60;99.90;;;;;;5023571;28;20049;-85
2020/12/03 11:15:37;;;;;;;11.70;10.48;;;24.70;99.90;;;;;;5014821;28;20442;-85
2020/12/03 11:18:17;;;;;;;10.90;9.80;;;25.20;99.90;;;;;;5012932;28;20113;-85
2020/12/03 11:20:43;;;;;;;11.18;9.70;;;25.70;99.90;;;;;;5014364;28;20017;-85
2020/12/03 11:23:24;;;;;;;9.18;8.27;;;24.70;99.90;;;;;;5014380;28;20072;-85
2020/12/03 11:25:52;;;;;;;8.90;8.00;;;23.60;99.90;;;;;;5014207;28;20029;-85
2020/12/03 11:28:31;;;;;;;8.40;7.60;;;22.90;99.90;;;;;;5013028;28;20030;-85
2020/12/03 11:31:02;;;;;;;8.98;7.38;;;22.10;99.90;;;;;;5013143;28;20520;-85
2020/12/03 11:33:30;;;;;;;7.82;6.90;;;21.90;99.90;;;;;;5028679;28;20033;-85
2020/12/03 11:36:08;;;;;;;7.50;6.35;;;22.10;99.90;;;;;;5022944;28;20490;-85
2020/12/03 11:38:34;;;;;;;6.63;6.03;;;23.40;99.90;;;;;;5014598;28;20022;-85
2020/12/03 11:41:05;;;;;;;6.55;5.95;;;24.00;99.90;;;;;;5014108;28;20022;-85
2020/12/03 11:48:55;;;;;;;7.07;5.50;;;25.10;99.90;;;;;;5015335;28;20036;-85
2020/12/03 11:51:30;;;;;;;7.47;5.68;;;24.90;99.90;;;;;;5028694;28;20029;-85
2020/12/03 11:54:03;;;;;;;7.50;6.13;;;25.00;99.90;;;;;;5033903;28;20029;-85
2020/12/03 11:56:30;;;;;;;5.32;4.72;;;23.60;99.90;;;;;;5032955;28;20048;-85
2020/12/03 11:59:15;;;;;;;5.28;4.78;;;21.30;99.90;;;;;;5052929;28;20033;-85
2020/12/03 12:01:55;;;;;;;5.80;4.32;;;20.30;99.90;;;;;;5053415;28;20516;-85
2020/12/03 12:04:27;;;;;;;4.95;4.15;;;19.30;99.90;;;;;;5051689;28;20025;-86
2020/12/03 12:07:39;;;;;;;5.25;4.50;;;18.10;99.90;;;;;;5051704;28;20497;-85
2020/12/03 12:10:00;;;;;;;5.55;4.20;;;17.20;99.90;;;;;;5036182;28;20038;-85
2020/12/03 12:12:27;;;;;;;5.00;4.50;;;17.30;99.90;;;;;;5029419;28;20049;-85
2020/12/03 12:14:52;;;;;;;3.10;2.90;;;16.50;99.90;;;;;;5024180;28;20037;-85
2020/12/03 12:17:19;;;;;;;3.05;2.75;;;15.90;99.90;;;;;;5026690;28;20030;-84
2020/12/03 12:19:47;;;;;;;3.22;2.92;;;15.80;99.90;;;;;;5033587;28;20025;-85
2020/12/03 12:22:14;;;;;;;4.15;3.50;;;15.60;99.90;;;;;;5034819;28;20026;-85
2020/12/03 12:24:44;;;;;;;3.55;3.25;;;16.30;99.90;;;;;;5032673;28;20021;-85
2020/12/03 12:27:10;;;;;;;4.10;3.70;;;16.20;99.90;;;;;;5031749;28;20100;-85
2020/12/03 12:29:37;;;;;;;2.50;2.30;;;15.80;99.90;;;;;;5032650;28;20048;-85
2020/12/03 12:32:04;;;;;;;3.00;2.38;;;15.60;99.90;;;;;;5048448;28;20025;-85
2020/12/03 12:34:30;;;;;;;3.45;2.20;;;17.70;99.90;;;;;;5031161;28;20478;-86
2020/12/03 12:36:56;;;;;;;3.00;2.80;;;18.60;99.90;;;;;;5030798;28;20030;-85
2020/12/03 12:39:22;;;;;;;4.38;3.72;;;20.90;99.90;;;;;;5033212;28;20492;-85
2020/12/03 12:41:59;;;;;;;3.67;3.38;;;21.30;99.90;;;;;;5032166;28;20040;-85
2020/12/03 12:44:24;;;;;;;3.90;3.22;;;21.20;99.90;;;;;;5031404;28;20031;-85
2020/12/03 12:46:56;;;;;;;5.10;3.05;;;20.60;99.90;;;;;;5033137;28;20114;-85
2020/12/03 12:49:22;;;;;;;3.05;2.75;;;18.50;99.90;;;;;;5031637;28;20093;-86
2020/12/03 12:51:47;;;;;;;3.33;3.03;;;18.00;99.90;;;;;;5033051;28;20057;-85
2020/12/03 12:54:13;;;;;;;5.97;3.20;;;16.70;99.90;;;;;;5032982;28;20036;-85
2020/12/03 12:56:39;;;;;;;4.72;3.35;;;15.60;99.90;;;;;;5032595;28;20481;-85
2020/12/03 12:59:05;;;;;;;3.72;2.88;;;15.40;99.90;;;;;;5032161;28;20155;-85
2020/12/03 13:01:30;;;;;;;2.50;2.10;;;15.40;99.90;;;;;;5031189;28;20063;-85
2020/12/03 13:03:56;;;;;;;4.10;2.85;;;15.70;99.90;;;;;;5031013;28;20116;-85
2020/12/03 13:06:21;;;;;;;3.05;2.30;;;15.90;99.90;;;;;;5032417;28;20029;-85
2020/12/03 13:08:47;;;;;;;8.70;3.47;;;14.70;99.90;;;;;;5047398;28;20033;-85
2020/12/03 13:11:13;;;;;;;7.05;4.28;;;14.60;99.90;;;;;;5036275;28;20036;-85